Dover Air Force Base
KDOV : now visible

Airfield :











YOU CAN JOIN US ON...

 
LOGIN :

Register | Disclaimer

   EN    FR    IT 

 









Legend :    VFR   Marginal VFR   IFR   Intensive IFR   Very Intensive IFR
Visi :
Ceiling :
>= 8 km
>= 3000ft
5 to 8 km
1000 to 3000 ft
1500m to 5 km
500 to 1000 ft
800 to 1500m
200 to 500 ft
< 800m
< 200 ft
Symbols :   Thunderstorms  Fog  Heavy snow  Heavy precipitations  Wind > 20 kt







- Airport Elevation : 24 ft


KDOV - Dover Air Force Base

CURRENT METAR :
  • 210456Z AUTO 29007KT 10SM FEW090 23/14 A2983 RMK AO2 SLP104 T02260136 403100222 $

EXPIRED METARs :
  • 210356Z AUTO 26005KT 10SM CLR 22/17 A2982 RMK AO2 SLP101 T02240173 $
  • 210256Z AUTO 24005KT 10SM SCT080 BKN110 23/19 A2982 RMK AO2 SLP101 60000 T02320187 52017 $
  • 210156Z AUTO 25005KT 10SM SCT080 OVC130 24/19 A2981 RMK AO2 SLP098 T02410185 $

TAF TAF KDOV
Valid from the 21 at 00:00 until the 22 at 06:00 UTC


210000Z 2100/2206 25009KT 9999 SCT040 QNH2975INS
BECMG 2102/2103 35006KT 9999 FEW025 QNH2983INS
BECMG 2112/2113 33012G18KT 9999 FEW150 QNH3002INS
BECMG 2123/2124 33009KT 9999 FEW150 QNH3002INS TX29/2101Z TN13/2111Z
KZDC FIR / North America



MET'MAP, your aeronautical weather chart ! - Copyright ORBIFLY December 2007 - Disclaimer

ORBIFLY MET'MAP TEAM :

Programming & Development : Alexandra Zaïnal
Concept & Development : Baudouin d'Aumeries
Co-Development & Prog : Marc-Olivier Méhu
Technical & hardware support : Manuel Goepfert

Contact : metmap@orbifly.com




SOURCES & CREDITS :

   NOAA       Earth
Advisory